Boeing Field King County International Airport
KBFI : now visible

Airfield :











YOU CAN JOIN US ON...

 
LOGIN :

Register | Disclaimer

   EN    FR    IT 

 









Legend :    VFR   Marginal VFR   IFR   Intensive IFR   Very Intensive IFR
Visi :
Ceiling :
>= 8 km
>= 3000ft
5 to 8 km
1000 to 3000 ft
1500m to 5 km
500 to 1000 ft
800 to 1500m
200 to 500 ft
< 800m
< 200 ft
Symbols :   Thunderstorms  Fog  Heavy snow  Heavy precipitations  Wind > 20 kt







- Airport Elevation : 21 ft
- IATA code : BFI


KBFI - Boeing Field King County International

CURRENT METAR :
  • 161253Z COR 00000KT 10SM OVC070 01/00 A2977 RMK AO2 SLP081 T00110000

EXPIRED METARs :
  • 161153Z 00000KT 10SM BKN065 BKN085 OVC110 02/00 A2976 RMK AO2 SLP076 T00170000 10033 20006 51008
  • 161053Z 00000KT 10SM OVC065 02/01 A2975 RMK AO2 SLP075 T00220006

TAF KBFI
Valid from the 16 at 12:00 until the 17 at 12:00 UTC


161137Z 1612/1712 00000KT P6SM OVC070
FM161800 17004KT P6SM -SHRA OVC030
FM162100 17005KT P6SM -RA OVC025
FM170200 18004KT P6SM -SHRA OVC025
FM170700 15003KT P6SM BKN030 OVC040
KZSE FIR / North America



MET'MAP, your aeronautical weather chart ! - Copyright ORBIFLY December 2007 - Disclaimer

ORBIFLY MET'MAP TEAM :

Programming & Development : Alexandra Zaïnal
Concept & Development : Baudouin d'Aumeries
Co-Development & Prog : Marc-Olivier Méhu
Technical & hardware support : Manuel Goepfert

Contact : metmap@orbifly.com




SOURCES & CREDITS :

   NOAA       Earth
Advisory